createdAt,value
2018-03-06T00:00:55.692Z,3.78
2018-03-06T00:01:55.645Z,3.81
2018-03-06T00:02:56.489Z,3.76
2018-03-06T00:03:55.597Z,3.7
2018-03-06T00:04:55.577Z,3.7
2018-03-06T00:05:55.526Z,3.74
2018-03-06T00:06:56.133Z,3.62
2018-03-06T00:07:55.478Z,3.63
2018-03-06T00:08:55.443Z,3.63
2018-03-06T00:09:57.116Z,3.62
2018-03-06T00:10:55.368Z,3.6
2018-03-06T00:11:55.369Z,3.63
2018-03-06T00:12:55.205Z,3.73
2018-03-06T00:13:57.024Z,3.62
2018-03-06T00:14:55.273Z,3.58
2018-03-06T00:15:55.620Z,3.66
2018-03-06T00:16:55.384Z,3.55
2018-03-06T00:17:56.084Z,3.68
2018-03-06T00:18:54.883Z,3.6
2018-03-06T00:19:54.849Z,3.56
2018-03-06T00:20:55.125Z,3.62
2018-03-06T00:21:56.687Z,3.59
2018-03-06T00:22:55.070Z,3.55
2018-03-06T00:23:54.460Z,3.5
2018-03-06T00:24:56.418Z,3.44
2018-03-06T00:25:54.923Z,3.53
2018-03-06T00:26:54.653Z,3.53
2018-03-06T00:27:54.607Z,3.44
2018-03-06T00:28:54.602Z,3.45
2018-03-06T00:29:54.926Z,3.4
2018-03-06T00:30:54.799Z,3.36
2018-03-06T00:31:55.606Z,3.36
2018-03-06T00:32:54.733Z,3.31
2018-03-06T00:33:54.697Z,3.34
2018-03-06T00:34:54.661Z,3.26
2018-03-06T00:35:55.470Z,3.34
2018-03-06T00:36:54.329Z,3.34
2018-03-06T00:37:54.580Z,3.34
2018-03-06T00:38:54.561Z,3.29
2018-03-06T00:39:54.912Z,3.31
2018-03-06T00:40:54.226Z,3.25
2018-03-06T00:41:54.451Z,3.28
2018-03-06T00:42:56.205Z,3.25
2018-03-06T00:43:54.409Z,3.25
2018-03-06T00:44:54.094Z,3.23
2018-03-06T00:45:55.092Z,3.23
2018-03-06T00:46:54.471Z,3.18
2018-03-06T00:47:54.302Z,3.16
2018-03-06T00:48:53.981Z,3.13
2018-03-06T00:49:54.631Z,3.13
2018-03-06T00:50:53.918Z,3.13
2018-03-06T00:51:54.160Z,3.14
2018-03-06T00:52:55.832Z,3.19
2018-03-06T00:53:53.813Z,3.18
2018-03-06T00:54:53.785Z,3.16
2018-03-06T00:55:53.753Z,3.16
2018-03-06T00:56:54.898Z,3.16
2018-03-06T00:57:53.967Z,3.18
2018-03-06T00:58:53.944Z,3.21
2018-03-06T00:59:55.689Z,3.16
2018-03-06T01:00:53.602Z,3.21
2018-03-06T01:01:53.575Z,3.13
2018-03-06T01:02:54.460Z,3.19
2018-03-06T01:03:53.816Z,3.16
2018-03-06T01:04:53.762Z,3.18
2018-03-06T01:05:53.463Z,3.16
2018-03-06T01:06:55.612Z,3.22
2018-03-06T01:07:53.396Z,3.22
2018-03-06T01:08:53.633Z,3.21
2018-03-06T01:09:53.635Z,3.19
2018-03-06T01:10:55.168Z,3.18
2018-03-06T01:11:53.529Z,3.18
2018-03-06T01:12:53.513Z,3.1
2018-03-06T01:13:54.030Z,3.08
2018-03-06T01:14:53.477Z,3.22
2018-03-06T01:15:53.405Z,3.11
2018-03-06T01:16:53.390Z,3.11
2018-03-06T01:17:54.781Z,3.1
2018-03-06T01:18:53.324Z,3.1
2018-03-06T01:19:53.313Z,3.04
2018-03-06T01:20:53.012Z,3.03
2018-03-06T01:21:54.895Z,3.01
2018-03-06T01:22:53.236Z,2.97
2018-03-06T01:23:53.202Z,3
2018-03-06T01:24:53.766Z,3.01
2018-03-06T01:25:53.132Z,2.97
2018-03-06T01:26:53.083Z,2.95
2018-03-06T01:27:53.084Z,2.98
2018-03-06T01:28:54.808Z,2.95
2018-03-06T01:29:52.983Z,2.98
2018-03-06T01:30:52.970Z,2.92
2018-03-06T01:31:54.559Z,2.89
2018-03-06T01:32:52.633Z,2.9
2018-03-06T01:33:52.881Z,2.89
2018-03-06T01:34:53.490Z,2.87
2018-03-06T01:35:52.810Z,2.87
2018-03-06T01:36:52.804Z,2.8
2018-03-06T01:37:53.677Z,2.87
2018-03-06T01:38:52.729Z,2.82
2018-03-06T01:39:52.420Z,2.82
2018-03-06T01:40:52.650Z,2.71
2018-03-06T01:41:54.190Z,2.75
2018-03-06T01:42:52.583Z,2.77
2018-03-06T01:43:52.584Z,2.8
2018-03-06T01:44:54.065Z,2.83
2018-03-06T01:45:52.503Z,2.8
2018-03-06T01:46:52.469Z,2.8
2018-03-06T01:47:53.983Z,2.71
2018-03-06T01:48:52.419Z,2.64
2018-03-06T01:49:52.382Z,2.64
2018-03-06T01:50:52.345Z,2.68
2018-03-06T01:51:54.010Z,2.61
2018-03-06T01:52:52.305Z,2.67
2018-03-06T01:53:52.332Z,2.62
2018-03-06T01:54:52.421Z,2.67
2018-03-06T01:55:52.198Z,2.51
2018-03-06T01:56:52.483Z,2.57
2018-03-06T01:57:53.714Z,2.56
2018-03-06T01:58:51.841Z,2.46
2018-03-06T01:59:51.822Z,2.42
2018-03-06T02:00:51.766Z,2.42
2018-03-06T02:01:53.592Z,2.47
2018-03-06T02:02:51.715Z,2.44
2018-03-06T02:03:51.676Z,2.44
2018-03-06T02:04:53.386Z,2.29
2018-03-06T02:05:51.884Z,2.31
2018-03-06T02:06:51.860Z,2.2
2018-03-06T02:07:51.562Z,2.24
2018-03-06T02:08:53.250Z,2.24
2018-03-06T02:09:51.504Z,2.25
2018-03-06T02:10:51.731Z,2.24
2018-03-06T02:11:52.681Z,2.18
2018-03-06T02:12:51.442Z,2.17
2018-03-06T02:13:51.639Z,2.17
2018-03-06T02:14:51.615Z,2.28
2018-03-06T02:15:52.982Z,2.15
2018-03-06T02:16:51.533Z,2.22
2018-03-06T02:17:51.513Z,2.11
2018-03-06T02:18:51.487Z,2.14
2018-03-06T02:19:53.120Z,2.1
2018-03-06T02:20:51.424Z,2.07
2018-03-06T02:21:51.395Z,2.11
2018-03-06T02:22:51.354Z,2.17
2018-03-06T02:23:52.833Z,2.11
2018-03-06T02:24:51.292Z,2.07
2018-03-06T02:25:51.264Z,2.14
2018-03-06T02:26:51.873Z,2
2018-03-06T02:27:51.225Z,2.08
2018-03-06T02:28:51.190Z,2.06
2018-03-06T02:29:51.149Z,1.99
2018-03-06T02:30:51.793Z,2.07
2018-03-06T02:31:51.096Z,2.08
2018-03-06T02:32:51.064Z,2.02
2018-03-06T02:33:50.765Z,2
2018-03-06T02:34:52.568Z,1.99
2018-03-06T02:35:50.951Z,2.07
2018-03-06T02:36:50.931Z,1.97
2018-03-06T02:37:51.206Z,2.02
2018-03-06T02:38:51.735Z,2.02
2018-03-06T02:39:50.585Z,1.99
2018-03-06T02:40:50.795Z,1.97
2018-03-06T02:41:52.040Z,2
2018-03-06T02:42:50.734Z,1.97
2018-03-06T02:43:50.719Z,1.94
2018-03-06T02:44:51.205Z,2.04
2018-03-06T02:45:50.649Z,2
2018-03-06T02:46:50.640Z,1.91
2018-03-06T02:47:50.582Z,1.94
2018-03-06T02:48:52.131Z,1.87
2018-03-06T02:49:50.637Z,1.88
2018-03-06T02:50:50.496Z,1.92
2018-03-06T02:51:50.459Z,1.78
2018-03-06T02:52:52.021Z,1.77
2018-03-06T02:53:49.861Z,1.88
2018-03-06T02:54:50.357Z,1.76
2018-03-06T02:55:51.662Z,1.78
2018-03-06T02:56:50.024Z,1.76
2018-03-06T02:57:50.013Z,1.81
2018-03-06T02:58:50.242Z,1.84
2018-03-06T02:59:51.055Z,1.78
2018-03-06T03:00:50.191Z,1.81
2018-03-06T03:01:50.020Z,1.73
2018-03-06T03:02:51.180Z,1.73
2018-03-06T03:03:49.823Z,1.73
2018-03-06T03:04:49.785Z,1.76
2018-03-06T03:05:50.027Z,1.8
2018-03-06T03:06:50.556Z,1.63
2018-03-06T03:07:49.691Z,1.77
2018-03-06T03:08:49.926Z,1.73
2018-03-06T03:09:49.883Z,1.68
2018-03-06T03:10:51.763Z,1.67
2018-03-06T03:11:49.839Z,1.73
2018-03-06T03:12:49.798Z,1.6
2018-03-06T03:13:50.684Z,1.63
2018-03-06T03:14:49.736Z,1.58
2018-03-06T03:15:49.697Z,1.62
2018-03-06T03:16:49.684Z,1.62
2018-03-06T03:17:51.318Z,1.6
2018-03-06T03:18:49.613Z,1.63
2018-03-06T03:19:50.955Z,1.67
2018-03-06T03:20:49.840Z,1.62
2018-03-06T03:21:51.985Z,1.59
2018-03-06T03:22:49.549Z,1.59
2018-03-06T03:23:49.479Z,1.68
2018-03-06T03:24:49.913Z,1.56
2018-03-06T03:25:49.379Z,1.6
2018-03-06T03:26:49.376Z,1.58
2018-03-06T03:27:50.920Z,1.59
2018-03-06T03:28:49.329Z,1.56
2018-03-06T03:29:49.279Z,1.58
2018-03-06T03:30:49.894Z,1.58
2018-03-06T03:31:49.221Z,1.66
2018-03-06T03:32:48.917Z,1.62
2018-03-06T03:33:48.861Z,1.67
2018-03-06T03:34:50.139Z,1.6
2018-03-06T03:35:49.094Z,1.62
2018-03-06T03:36:49.062Z,1.62
2018-03-06T03:37:50.248Z,1.6
2018-03-06T03:38:48.987Z,1.6
2018-03-06T03:39:48.963Z,1.58
2018-03-06T03:40:50.596Z,1.66
2018-03-06T03:41:48.884Z,1.67
2018-03-06T03:42:48.868Z,1.67
2018-03-06T03:43:50.440Z,1.62
2018-03-06T03:44:48.799Z,1.71
2018-03-06T03:45:48.497Z,1.67
2018-03-06T03:46:50.588Z,1.6
2018-03-06T03:47:48.692Z,1.6
2018-03-06T03:48:48.676Z,1.66
2018-03-06T03:49:50.113Z,1.6
2018-03-06T03:50:48.336Z,1.62
2018-03-06T03:51:48.302Z,1.63
2018-03-06T03:52:48.547Z,1.63
2018-03-06T03:53:50.187Z,1.66
2018-03-06T03:54:48.209Z,1.58
2018-03-06T03:55:48.169Z,1.55
2018-03-06T03:56:50.122Z,1.56
2018-03-06T03:57:48.365Z,1.49
2018-03-06T03:58:48.341Z,1.53
2018-03-06T03:59:48.329Z,1.53
2018-03-06T04:00:48.734Z,1.5
2018-03-06T04:01:48.243Z,1.53
2018-03-06T04:02:47.948Z,1.56
2018-03-06T04:03:48.947Z,1.58
2018-03-06T04:04:48.146Z,1.42
2018-03-06T04:05:48.584Z,1.45
2018-03-06T04:06:48.110Z,1.45
2018-03-06T04:07:47.809Z,1.48
2018-03-06T04:08:50.035Z,1.41
2018-03-06T04:09:48.031Z,1.49
2018-03-06T04:10:47.991Z,1.5
2018-03-06T04:11:47.958Z,1.44
2018-03-06T04:12:49.424Z,1.52
2018-03-06T04:13:47.889Z,1.48
2018-03-06T04:14:47.855Z,1.49
2018-03-06T04:15:49.531Z,1.45
2018-03-06T04:16:47.793Z,1.53
2018-03-06T04:17:47.474Z,1.44
2018-03-06T04:18:49.397Z,1.52
2018-03-06T04:19:47.689Z,1.48
2018-03-06T04:20:47.384Z,1.44
2018-03-06T04:21:47.609Z,1.52
2018-03-06T04:22:48.724Z,1.55
2018-03-06T04:23:47.281Z,1.48
2018-03-06T04:24:47.259Z,1.49
2018-03-06T04:25:47.971Z,1.48
2018-03-06T04:26:47.475Z,1.5
2018-03-06T04:27:47.418Z,1.53
2018-03-06T04:28:47.397Z,1.5
2018-03-06T04:29:49.104Z,1.53
2018-03-06T04:30:47.321Z,1.52
2018-03-06T04:31:47.295Z,1.56
2018-03-06T04:32:49.069Z,1.53
2018-03-06T04:33:47.228Z,1.5
2018-03-06T04:34:47.201Z,1.53
2018-03-06T04:35:49.066Z,1.52
2018-03-06T04:36:47.146Z,1.55
2018-03-06T04:37:46.845Z,1.53
2018-03-06T04:38:47.078Z,1.49
2018-03-06T04:39:47.603Z,1.58
2018-03-06T04:40:47.182Z,1.55
2018-03-06T04:41:46.988Z,1.5
2018-03-06T04:42:48.512Z,1.52
2018-03-06T04:43:46.658Z,1.58
2018-03-06T04:44:46.883Z,1.42
2018-03-06T04:45:46.865Z,1.48
2018-03-06T04:46:48.642Z,1.55
2018-03-06T04:47:46.528Z,1.49
2018-03-06T04:48:46.771Z,1.48
2018-03-06T04:49:48.398Z,1.48
2018-03-06T04:50:46.454Z,1.44
2018-03-06T04:51:46.678Z,1.5
2018-03-06T04:52:46.641Z,1.53
2018-03-06T04:53:48.391Z,1.53
2018-03-06T04:54:46.576Z,1.44
2018-03-06T04:55:46.532Z,1.52
2018-03-06T04:56:47.345Z,1.45
2018-03-06T04:57:46.488Z,1.45
2018-03-06T04:58:46.437Z,1.42
2018-03-06T04:59:46.410Z,1.42
2018-03-06T05:00:48.386Z,1.48
2018-03-06T05:01:46.390Z,1.44
2018-03-06T05:02:46.087Z,1.48
2018-03-06T05:03:46.344Z,1.45
2018-03-06T05:04:47.695Z,1.45
2018-03-06T05:05:46.239Z,1.49
2018-03-06T05:06:45.925Z,1.58
2018-03-06T05:07:46.927Z,1.42
2018-03-06T05:08:45.612Z,1.4
2018-03-06T05:09:46.116Z,1.49
2018-03-06T05:10:46.560Z,1.42
2018-03-06T05:11:46.876Z,1.35
2018-03-06T05:12:46.020Z,1.4
2018-03-06T05:13:46.913Z,1.45
2018-03-06T05:14:46.025Z,1.4
2018-03-06T05:15:45.912Z,1.48
2018-03-06T05:16:45.875Z,1.44
2018-03-06T05:17:47.755Z,1.48
2018-03-06T05:18:45.812Z,1.4
2018-03-06T05:19:45.802Z,1.41
2018-03-06T05:20:45.764Z,1.5
2018-03-06T05:21:47.474Z,1.44
2018-03-06T05:22:45.704Z,1.5
2018-03-06T05:23:45.646Z,1.53
2018-03-06T05:24:47.038Z,1.5
2018-03-06T05:25:46.540Z,1.52
2018-03-06T05:26:45.573Z,1.5
2018-03-06T05:27:45.520Z,1.56
2018-03-06T05:28:45.478Z,1.5
2018-03-06T05:29:46.470Z,1.53
2018-03-06T05:30:45.422Z,1.53
2018-03-06T05:31:45.417Z,1.58
2018-03-06T05:32:46.903Z,1.6
2018-03-06T05:33:45.346Z,1.68
2018-03-06T05:34:45.310Z,1.63
2018-03-06T05:35:45.282Z,1.6
2018-03-06T05:36:46.597Z,1.66
2018-03-06T05:37:44.948Z,1.73
2018-03-06T05:38:45.181Z,1.73
2018-03-06T05:39:44.871Z,1.68
2018-03-06T05:40:45.653Z,1.68
2018-03-06T05:41:45.099Z,1.76
2018-03-06T05:42:44.779Z,1.67
2018-03-06T05:43:45.017Z,1.68
2018-03-06T05:44:45.577Z,1.73
2018-03-06T05:45:44.710Z,1.7
2018-03-06T05:46:44.936Z,1.7
2018-03-06T05:47:44.912Z,1.6
2018-03-06T05:48:46.453Z,1.73
2018-03-06T05:49:44.830Z,1.73
2018-03-06T05:50:44.528Z,1.71
2018-03-06T05:51:46.443Z,1.63
2018-03-06T05:52:44.743Z,1.63
2018-03-06T05:53:44.714Z,1.63
2018-03-06T05:54:44.662Z,1.62
2018-03-06T05:55:46.492Z,1.71
2018-03-06T05:56:44.605Z,1.66
2018-03-06T05:57:44.588Z,1.6
2018-03-06T05:58:44.543Z,1.59
2018-03-06T05:59:44.952Z,1.6
2018-03-06T06:00:44.513Z,1.6
2018-03-06T06:01:44.475Z,1.71
2018-03-06T06:02:44.151Z,1.71
2018-03-06T06:03:45.589Z,1.62
2018-03-06T06:04:44.364Z,1.73
2018-03-06T06:05:44.319Z,1.68
2018-03-06T06:06:46.141Z,1.73
2018-03-06T06:07:43.998Z,1.66
2018-03-06T06:08:45.519Z,1.66
2018-03-06T06:09:43.981Z,1.8
2018-03-06T06:10:43.900Z,1.84
2018-03-06T06:11:44.406Z,1.84
2018-03-06T06:12:44.118Z,1.87
2018-03-06T06:13:44.046Z,1.89
2018-03-06T06:14:44.012Z,2
2018-03-06T06:15:43.727Z,1.97
2018-03-06T06:16:43.986Z,2.08
2018-03-06T06:17:43.921Z,2.11
2018-03-06T06:18:43.634Z,2.1
2018-03-06T06:19:43.853Z,2.14
2018-03-06T06:20:43.820Z,2.14
2018-03-06T06:21:43.545Z,2.15
2018-03-06T06:22:43.763Z,2.13
2018-03-06T06:23:43.766Z,2.22
2018-03-06T06:24:44.041Z,2.2
2018-03-06T06:25:44.254Z,2.07
2018-03-06T06:26:44.319Z,2.15
2018-03-06T06:27:44.132Z,2.2
2018-03-06T06:28:43.583Z,2.22
2018-03-06T06:29:43.046Z,2.11
2018-03-06T06:30:43.535Z,2.22
2018-03-06T06:31:43.481Z,2.2
2018-03-06T06:32:43.461Z,2.13
2018-03-06T06:33:43.421Z,2.18
2018-03-06T06:34:43.388Z,2.22
2018-03-06T06:35:43.358Z,2.17
2018-03-06T06:36:43.324Z,2.24
2018-03-06T06:37:43.297Z,2.35
2018-03-06T06:38:43.268Z,2.29
2018-03-06T06:39:42.990Z,2.42
2018-03-06T06:40:43.204Z,2.44
2018-03-06T06:41:42.926Z,2.5
2018-03-06T06:42:43.165Z,2.47
2018-03-06T06:43:43.113Z,2.54
2018-03-06T06:44:43.133Z,2.62
2018-03-06T06:45:43.061Z,2.64
2018-03-06T06:46:43.027Z,2.77
2018-03-06T06:47:42.992Z,2.83
2018-03-06T06:48:42.963Z,2.8
2018-03-06T06:49:42.680Z,2.92
2018-03-06T06:50:42.900Z,2.92
2018-03-06T06:51:43.615Z,3
2018-03-06T06:52:42.838Z,2.95
2018-03-06T06:53:42.563Z,2.93
2018-03-06T06:54:42.787Z,3.07
2018-03-06T06:55:42.748Z,2.97
2018-03-06T06:56:42.722Z,3.1
2018-03-06T06:57:42.694Z,3.13
2018-03-06T06:58:42.665Z,3.16
2018-03-06T06:59:42.626Z,3.19
2018-03-06T07:00:42.350Z,3.19
2018-03-06T07:01:42.571Z,3.13
2018-03-06T07:02:42.291Z,3.26
2018-03-06T07:03:42.258Z,3.25
2018-03-06T07:04:42.873Z,3.25
2018-03-06T07:05:41.953Z,3.36
2018-03-06T07:06:42.175Z,3.44
2018-03-06T07:07:42.391Z,3.4
2018-03-06T07:08:42.357Z,3.32
2018-03-06T07:09:42.094Z,3.4
2018-03-06T07:10:42.301Z,3.51
2018-03-06T07:11:42.318Z,3.47
2018-03-06T07:12:43.119Z,3.45
2018-03-06T07:13:42.374Z,3.53
2018-03-06T07:14:42.881Z,3.58
2018-03-06T07:15:42.291Z,3.53
2018-03-06T07:16:42.133Z,3.62
2018-03-06T07:17:42.104Z,3.6
2018-03-06T07:18:42.068Z,3.62
2018-03-06T07:19:41.790Z,3.59
2018-03-06T07:20:42.006Z,3.56
2018-03-06T07:21:41.732Z,3.68
2018-03-06T07:22:41.953Z,3.7
2018-03-06T07:23:41.921Z,3.65
2018-03-06T07:24:41.641Z,3.76
2018-03-06T07:25:41.764Z,3.76
2018-03-06T07:26:41.831Z,3.76
2018-03-06T07:27:41.803Z,3.77
2018-03-06T07:28:41.766Z,3.78
2018-03-06T07:29:41.532Z,3.78
2018-03-06T07:30:41.712Z,3.86
2018-03-06T07:31:41.680Z,3.84
2018-03-06T07:32:41.652Z,3.77
2018-03-06T07:33:41.620Z,3.86
2018-03-06T07:34:41.717Z,3.92
2018-03-06T07:35:41.559Z,3.95
2018-03-06T07:36:41.536Z,3.94
2018-03-06T07:37:41.506Z,3.86
2018-03-06T07:38:41.477Z,4.02
2018-03-06T07:39:41.457Z,4.08
2018-03-06T07:40:41.420Z,4.04
2018-03-06T07:41:41.399Z,4.2
2018-03-06T07:42:41.123Z,4.24
2018-03-06T07:43:41.332Z,4.31
2018-03-06T07:44:41.055Z,4.37
2018-03-06T07:45:41.274Z,4.41
2018-03-06T07:46:41.250Z,4.56
2018-03-06T07:47:41.218Z,4.7
2018-03-06T07:48:41.188Z,4.7
2018-03-06T07:49:40.915Z,4.73
2018-03-06T07:50:41.135Z,4.86
2018-03-06T07:51:41.102Z,4.92
2018-03-06T07:52:41.076Z,5.07
2018-03-06T07:53:40.795Z,5.07
2018-03-06T07:54:41.018Z,5.12
2018-03-06T07:55:40.743Z,5.26
2018-03-06T07:56:40.963Z,5.32
2018-03-06T07:57:40.688Z,5.43
2018-03-06T07:58:40.909Z,5.64
2018-03-06T07:59:40.631Z,5.72
2018-03-06T08:00:40.630Z,5.73
2018-03-06T08:01:40.579Z,5.87
2018-03-06T08:02:40.799Z,5.9
2018-03-06T08:03:40.775Z,6.08
2018-03-06T08:04:40.747Z,6.22
2018-03-06T08:05:40.723Z,6.22
2018-03-06T08:06:40.746Z,6.26
2018-03-06T08:07:40.488Z,6.45
2018-03-06T08:08:41.322Z,6.49
2018-03-06T08:09:40.620Z,6.62
2018-03-06T08:10:40.591Z,6.62
2018-03-06T08:11:40.681Z,6.7
2018-03-06T08:12:40.533Z,6.77
2018-03-06T08:13:40.565Z,6.88
2018-03-06T08:14:40.480Z,6.92
2018-03-06T08:15:40.456Z,7.07
2018-03-06T08:16:40.427Z,7.13
2018-03-06T08:17:40.407Z,7.17
2018-03-06T08:18:40.379Z,7.31
2018-03-06T08:19:40.351Z,7.33
2018-03-06T08:20:40.330Z,7.47
2018-03-06T08:21:40.408Z,7.53
2018-03-06T08:22:40.277Z,7.57
2018-03-06T08:23:40.248Z,7.54
2018-03-06T08:24:40.232Z,7.63
2018-03-06T08:25:40.202Z,7.76
2018-03-06T08:26:40.179Z,7.72
2018-03-06T08:27:40.152Z,7.8
2018-03-06T08:28:39.879Z,7.87
2018-03-06T08:29:40.103Z,8.01
2018-03-06T08:30:39.584Z,8.01
2018-03-06T08:31:39.811Z,8
2018-03-06T08:32:39.782Z,8.05
2018-03-06T08:33:40.004Z,8.1
2018-03-06T08:34:46.010Z,8.09
2018-03-06T08:35:39.959Z,8.13
2018-03-06T08:36:39.699Z,8.18
2018-03-06T08:37:40.059Z,8.23
2018-03-06T08:38:40.394Z,8.26
2018-03-06T08:39:39.855Z,8.16
2018-03-06T08:40:39.840Z,8.15
2018-03-06T08:41:39.842Z,8.15
2018-03-06T08:42:39.781Z,8.18
2018-03-06T08:43:39.760Z,8.09
2018-03-06T08:44:39.237Z,8.19
2018-03-06T08:45:39.462Z,8.06
2018-03-06T08:46:39.682Z,8.24
2018-03-06T08:47:39.928Z,8.19
2018-03-06T08:48:39.634Z,8.18
2018-03-06T08:49:39.363Z,8.23
2018-03-06T08:50:39.590Z,8.27
2018-03-06T08:51:39.568Z,8.23
2018-03-06T08:52:39.538Z,8.27
2018-03-06T08:53:39.517Z,8.26
2018-03-06T08:54:39.490Z,8.36
2018-03-06T08:55:39.463Z,8.31
2018-03-06T08:56:39.443Z,8.33
2018-03-06T08:57:39.418Z,8.46
2018-03-06T08:58:41.485Z,8.46
2018-03-06T08:59:39.375Z,8.46
2018-03-06T09:00:39.130Z,8.44
2018-03-06T09:01:39.329Z,8.56
2018-03-06T09:02:39.337Z,8.63
2018-03-06T09:03:39.640Z,8.7
2018-03-06T09:04:38.998Z,8.66
2018-03-06T09:05:38.975Z,8.69
2018-03-06T09:06:39.201Z,8.81
2018-03-06T09:07:38.942Z,8.84
2018-03-06T09:08:39.148Z,8.89
2018-03-06T09:09:38.886Z,8.92
2018-03-06T09:10:39.196Z,9.11
2018-03-06T09:11:39.076Z,9.1
2018-03-06T09:12:39.052Z,9.22
2018-03-06T09:13:38.783Z,9.18
2018-03-06T09:14:39.060Z,9.31
2018-03-06T09:15:38.729Z,9.44
2018-03-06T09:16:39.090Z,9.5
2018-03-06T09:17:38.935Z,9.56
2018-03-06T09:18:38.911Z,9.62
2018-03-06T09:19:38.639Z,9.68
2018-03-06T09:20:38.863Z,9.82
2018-03-06T09:21:39.225Z,9.92
2018-03-06T09:22:38.814Z,9.94
2018-03-06T09:23:38.544Z,10.05
2018-03-06T09:24:38.774Z,10.09
2018-03-06T09:25:38.494Z,10.09
2018-03-06T09:26:38.725Z,10.13
2018-03-06T09:27:38.702Z,10.22
2018-03-06T09:28:38.673Z,10.3
2018-03-06T09:29:38.653Z,10.19
2018-03-06T09:30:38.630Z,10.35
2018-03-06T09:31:38.649Z,10.37
2018-03-06T09:32:38.726Z,10.42
2018-03-06T09:33:38.571Z,10.59
2018-03-06T09:34:38.546Z,10.57
2018-03-06T09:35:38.266Z,10.57
2018-03-06T09:36:38.534Z,10.59
2018-03-06T09:37:38.469Z,10.64
2018-03-06T09:38:38.441Z,10.75
2018-03-06T09:39:38.419Z,10.79
2018-03-06T09:40:38.150Z,10.75
2018-03-06T09:41:38.398Z,10.71
2018-03-06T09:42:38.104Z,10.81
2018-03-06T09:43:38.330Z,10.93
2018-03-06T09:44:38.684Z,10.96
2018-03-06T09:45:38.284Z,10.99
2018-03-06T09:46:38.016Z,11.11
2018-03-06T09:47:38.240Z,11.17
2018-03-06T09:48:38.242Z,11.26
2018-03-06T09:49:38.198Z,11.32
2018-03-06T09:50:38.175Z,11.36
2018-03-06T09:51:38.151Z,11.48
2018-03-06T09:52:38.126Z,11.48
2018-03-06T09:53:38.105Z,11.52
2018-03-06T09:54:37.823Z,11.51
2018-03-06T09:55:37.942Z,11.65
2018-03-06T09:56:38.059Z,11.69
2018-03-06T09:57:38.265Z,11.73
2018-03-06T09:58:37.873Z,11.73
2018-03-06T09:59:37.978Z,11.84
2018-03-06T10:00:37.952Z,11.81
2018-03-06T10:01:37.930Z,12
2018-03-06T10:02:38.341Z,11.87
2018-03-06T10:03:38.707Z,12.12
2018-03-06T10:04:37.861Z,12.2
2018-03-06T10:05:37.844Z,12.24
2018-03-06T10:06:37.614Z,12.24
2018-03-06T10:07:37.799Z,12.24
2018-03-06T10:08:37.773Z,12.35
2018-03-06T10:09:37.756Z,12.42
2018-03-06T10:10:37.484Z,12.43
2018-03-06T10:11:37.469Z,12.5
2018-03-06T10:12:37.489Z,12.6
2018-03-06T10:13:38.030Z,12.72
2018-03-06T10:14:37.645Z,12.73
2018-03-06T10:15:37.377Z,12.85
2018-03-06T10:16:37.358Z,12.86
2018-03-06T10:17:37.634Z,12.78
2018-03-06T10:18:37.320Z,12.9
2018-03-06T10:19:38.036Z,12.86
2018-03-06T10:20:37.593Z,12.91
2018-03-06T10:21:37.891Z,12.94
2018-03-06T10:22:37.491Z,12.98
2018-03-06T10:23:37.485Z,13.01
2018-03-06T10:24:37.445Z,13.01
2018-03-06T10:25:37.418Z,13.09
2018-03-06T10:26:37.156Z,13.09
2018-03-06T10:27:37.376Z,13.13
2018-03-06T10:28:37.360Z,13.2
2018-03-06T10:29:37.335Z,13.19
2018-03-06T10:30:37.074Z,13.22
2018-03-06T10:31:37.304Z,13.16
2018-03-06T10:32:37.275Z,13.13
2018-03-06T10:33:37.008Z,13.2
2018-03-06T10:34:37.233Z,13.16
2018-03-06T10:35:37.217Z,13.15
2018-03-06T10:36:37.407Z,13.18
2018-03-06T10:37:37.337Z,13.19
2018-03-06T10:38:37.151Z,13.12
2018-03-06T10:39:37.131Z,13.09
2018-03-06T10:40:37.112Z,13.05
2018-03-06T10:41:37.094Z,13.03
2018-03-06T10:42:37.070Z,13.05
2018-03-06T10:43:37.051Z,13.05
2018-03-06T10:44:36.782Z,13.09
2018-03-06T10:45:37.009Z,13.04
2018-03-06T10:46:36.988Z,13.12
2018-03-06T10:47:36.973Z,13.12
2018-03-06T10:48:36.702Z,13.12
2018-03-06T10:49:36.726Z,13.11
2018-03-06T10:50:36.908Z,13.04
2018-03-06T10:51:36.918Z,13.11
2018-03-06T10:52:36.865Z,13.2
2018-03-06T10:53:36.597Z,13.13
2018-03-06T10:54:36.830Z,13.22
2018-03-06T10:55:36.804Z,13.18
2018-03-06T10:56:36.783Z,13.27
2018-03-06T10:57:36.764Z,13.28
2018-03-06T10:58:36.850Z,13.23
2018-03-06T10:59:36.474Z,13.23
2018-03-06T11:00:36.713Z,13.27
2018-03-06T11:01:36.688Z,13.19
2018-03-06T11:02:36.414Z,13.35
2018-03-06T11:03:36.645Z,13.28
2018-03-06T11:04:36.631Z,13.33
2018-03-06T11:05:36.596Z,13.3
2018-03-06T11:06:36.581Z,13.31
2018-03-06T11:07:36.316Z,13.31
2018-03-06T11:08:36.533Z,13.44
2018-03-06T11:09:36.513Z,13.35
2018-03-06T11:10:36.492Z,13.46
2018-03-06T11:11:36.483Z,13.46
2018-03-06T11:12:36.206Z,13.53
2018-03-06T11:13:36.435Z,13.52
2018-03-06T11:14:36.419Z,13.5
2018-03-06T11:15:36.402Z,13.49
2018-03-06T11:16:36.374Z,13.56
2018-03-06T11:17:36.104Z,13.49
2018-03-06T11:18:36.122Z,13.47
2018-03-06T11:19:36.315Z,13.47
2018-03-06T11:20:36.043Z,13.39
2018-03-06T11:21:36.022Z,13.42
2018-03-06T11:22:36.250Z,13.42
2018-03-06T11:23:36.292Z,13.42
2018-03-06T11:24:36.212Z,13.52
2018-03-06T11:25:35.942Z,13.46
2018-03-06T11:26:36.171Z,13.56
2018-03-06T11:27:36.153Z,13.67
2018-03-06T11:28:35.882Z,13.59
2018-03-06T11:29:36.112Z,13.75
2018-03-06T11:30:36.088Z,13.75
2018-03-06T11:31:37.099Z,13.86
2018-03-06T11:32:36.593Z,13.87
2018-03-06T11:33:36.297Z,13.9
2018-03-06T11:34:36.282Z,13.89
2018-03-06T11:35:35.744Z,13.9
2018-03-06T11:36:35.978Z,13.93
2018-03-06T11:37:35.705Z,13.87
2018-03-06T11:38:35.932Z,13.89
2018-03-06T11:39:35.662Z,13.9
2018-03-06T11:40:35.897Z,13.97
2018-03-06T11:41:35.625Z,13.93
2018-03-06T11:42:35.856Z,13.96
2018-03-06T11:43:35.588Z,13.97
2018-03-06T11:44:35.816Z,14.05
2018-03-06T11:45:35.548Z,14.04
2018-03-06T11:46:35.530Z,14.04
2018-03-06T11:47:35.506Z,14.07
2018-03-06T11:48:35.493Z,14.04
2018-03-06T11:49:35.722Z,14.15
2018-03-06T11:50:35.701Z,14.17
2018-03-06T11:51:35.681Z,14.14
2018-03-06T11:52:35.666Z,14.25
2018-03-06T11:53:35.646Z,14.22
2018-03-06T11:54:35.636Z,14.17
2018-03-06T11:55:35.606Z,14.22
2018-03-06T11:56:35.587Z,14.17
2018-03-06T11:57:35.567Z,14.32
2018-03-06T11:58:35.305Z,14.36
2018-03-06T11:59:35.543Z,14.35
2018-03-06T12:00:35.511Z,14.33
2018-03-06T12:01:35.493Z,14.35
2018-03-06T12:02:35.394Z,14.33
2018-03-06T12:03:35.454Z,14.32
2018-03-06T12:04:34.940Z,14.25
2018-03-06T12:05:35.172Z,14.25
2018-03-06T12:06:35.407Z,14.25
2018-03-06T12:07:35.134Z,14.23
2018-03-06T12:08:35.364Z,14.23
2018-03-06T12:09:35.345Z,14.28
2018-03-06T12:10:35.076Z,14.26
2018-03-06T12:11:35.061Z,14.25
2018-03-06T12:12:35.361Z,14.25
2018-03-06T12:13:35.032Z,14.22
2018-03-06T12:14:35.259Z,14.18
2018-03-06T12:15:35.239Z,14.26
2018-03-06T12:16:35.214Z,14.22
2018-03-06T12:17:35.200Z,14.36
2018-03-06T12:18:34.944Z,14.33
2018-03-06T12:19:34.665Z,14.36
2018-03-06T12:20:36.073Z,14.37
2018-03-06T12:21:34.945Z,14.5
2018-03-06T12:22:35.262Z,14.47
2018-03-06T12:23:34.841Z,14.47
2018-03-06T12:24:35.495Z,14.35
2018-03-06T12:25:36.101Z,14.53
2018-03-06T12:26:36.823Z,14.53
2018-03-06T12:27:36.726Z,14.55
2018-03-06T12:28:35.020Z,14.58
2018-03-06T12:29:35.669Z,14.65
2018-03-06T12:30:35.288Z,14.6
2018-03-06T12:31:37.130Z,14.7
2018-03-06T12:32:34.677Z,14.68
2018-03-06T12:33:34.661Z,14.81
2018-03-06T12:34:34.849Z,14.81
2018-03-06T12:35:34.767Z,14.82
2018-03-06T12:36:34.606Z,14.86
2018-03-06T12:37:34.974Z,14.72
2018-03-06T12:38:34.818Z,14.79
2018-03-06T12:39:34.878Z,14.89
2018-03-06T12:40:34.784Z,14.84
2018-03-06T12:41:34.611Z,14.94
2018-03-06T12:42:34.796Z,14.97
2018-03-06T12:43:34.855Z,15.09
2018-03-06T12:44:36.084Z,15.02
2018-03-06T12:45:36.356Z,14.94
2018-03-06T12:46:34.676Z,14.91
2018-03-06T12:47:36.059Z,14.82
2018-03-06T12:48:34.640Z,14.77
2018-03-06T12:49:34.377Z,14.68
2018-03-06T12:50:34.614Z,14.69
2018-03-06T12:51:34.697Z,14.68
2018-03-06T12:52:34.572Z,14.7
2018-03-06T12:53:34.563Z,14.69
2018-03-06T12:54:34.536Z,14.7
2018-03-06T12:55:34.533Z,14.78
2018-03-06T12:56:34.502Z,14.91
2018-03-06T12:57:34.490Z,14.91
2018-03-06T12:58:34.468Z,14.94
2018-03-06T12:59:34.451Z,15.15
2018-03-06T13:00:34.428Z,15.11
2018-03-06T13:01:34.413Z,15.24
2018-03-06T13:02:34.396Z,15.29
2018-03-06T13:03:34.374Z,15.33
2018-03-06T13:04:34.386Z,15.43
2018-03-06T13:05:34.348Z,15.51
2018-03-06T13:06:34.082Z,15.44
2018-03-06T13:07:34.309Z,15.52
2018-03-06T13:08:34.048Z,15.58
2018-03-06T13:09:34.639Z,15.54
2018-03-06T13:10:34.262Z,15.55
2018-03-06T13:11:34.241Z,15.57
2018-03-06T13:12:35.522Z,15.58
2018-03-06T13:13:34.546Z,15.62
2018-03-06T13:14:34.237Z,15.65